Time;durP1;ratioP1;P1;durP2;ratioP2;P2;SDS_P1;SDS_P2;PMS_P1;PMS_P2;Temp;Humidity;BMP_temperature;BMP_pressure;BME280_temperature;BME280_humidity;BME280_pressure;Samples;Min_cycle;Max_cycle;Signal;HPM_P1;HPM_P2
2021/05/26 00:00:53;;;;;;;15.13;13.05;;;;;;;;;;2049000;28;20191;-60
2021/05/26 00:01:53;;;;;;;11.98;10.85;;;;;;;;;;2057677;28;20182;-60
2021/05/26 00:02:53;;;;;;;13.40;12.15;;;;;;;;;;2058056;28;20170;-61
2021/05/26 00:03:54;;;;;;;13.02;11.80;;;;;;;;;;2054104;28;20179;-61
2021/05/26 00:04:54;;;;;;;13.73;12.32;;;;;;;;;;2049323;28;20202;-60
2021/05/26 00:05:54;;;;;;;13.10;11.73;;;;;;;;;;2049162;28;20659;-62
2021/05/26 00:06:55;;;;;;;12.55;11.23;;;;;;;;;;2048575;28;20206;-61
2021/05/26 00:07:56;;;;;;;12.82;11.48;;;;;;;;;;2048354;29;20644;-59
2021/05/26 00:08:56;;;;;;;12.95;11.63;;;;;;;;;;2056641;28;20566;-60
2021/05/26 00:09:56;;;;;;;13.68;12.38;;;;;;;;;;2057466;28;20178;-60
2021/05/26 00:10:57;;;;;;;13.25;11.55;;;;;;;;;;2054236;28;20594;-62
2021/05/26 00:11:58;;;;;;;13.93;12.68;;;;;;;;;;2051323;28;20176;-61
2021/05/26 00:12:58;;;;;;;13.13;12.02;;;;;;;;;;2049287;29;20245;-61
2021/05/26 00:13:58;;;;;;;12.23;10.98;;;;;;;;;;2052427;28;20182;-62
2021/05/26 00:14:58;;;;;;;13.55;12.20;;;;;;;;;;2055359;28;20182;-62
2021/05/26 00:15:59;;;;;;;13.00;11.70;;;;;;;;;;2055629;28;20175;-59
2021/05/26 00:16:59;;;;;;;13.60;12.25;;;;;;;;;;2054679;28;20685;-62
2021/05/26 00:17:59;;;;;;;14.05;12.32;;;;;;;;;;2057599;28;20190;-61
2021/05/26 00:19:00;;;;;;;12.75;11.55;;;;;;;;;;2051308;28;20207;-61
2021/05/26 00:20:00;;;;;;;14.25;12.85;;;;;;;;;;2049681;28;20306;-60
2021/05/26 00:21:01;;;;;;;13.40;12.10;;;;;;;;;;2052147;28;20175;-62
2021/05/26 00:22:01;;;;;;;14.15;12.85;;;;;;;;;;2055825;28;20253;-62
2021/05/26 00:23:02;;;;;;;12.85;11.70;;;;;;;;;;2057049;28;20230;-61
2021/05/26 00:24:02;;;;;;;13.15;11.98;;;;;;;;;;2057878;28;20512;-60
2021/05/26 00:25:03;;;;;;;12.77;11.60;;;;;;;;;;2057018;28;20178;-62
2021/05/26 00:26:04;;;;;;;14.05;12.50;;;;;;;;;;2057561;28;20275;-58
2021/05/26 00:27:04;;;;;;;12.73;11.60;;;;;;;;;;2055821;28;20257;-60
2021/05/26 00:28:04;;;;;;;13.50;12.20;;;;;;;;;;2057108;28;20173;-60
2021/05/26 00:29:05;;;;;;;13.48;12.27;;;;;;;;;;2056348;28;20676;-61
2021/05/26 00:30:06;;;;;;;13.20;11.85;;;;;;;;;;2055427;28;20229;-61
2021/05/26 00:31:08;;;;;;;12.98;11.48;;;;;;;;;;2056132;28;20650;-62
2021/05/26 00:32:09;;;;;;;14.20;12.80;;;;;;;;;;2057306;28;20182;-62
2021/05/26 00:33:09;;;;;;;14.15;12.75;;;;;;;;;;2057862;28;20163;-61
2021/05/26 00:34:09;;;;;;;12.30;11.02;;;;;;;;;;2055268;28;20241;-61
2021/05/26 00:35:10;;;;;;;14.35;12.23;;;;;;;;;;2057035;28;20174;-62
2021/05/26 00:36:10;;;;;;;13.10;11.80;;;;;;;;;;2056928;28;20720;-61
2021/05/26 00:37:10;;;;;;;15.07;13.65;;;;;;;;;;2057018;28;20600;-60
2021/05/26 00:38:11;;;;;;;14.32;12.82;;;;;;;;;;2056772;28;20888;-61
2021/05/26 00:39:11;;;;;;;14.38;12.88;;;;;;;;;;2056993;28;20233;-61
2021/05/26 00:40:12;;;;;;;14.80;13.15;;;;;;;;;;2057257;28;20180;-61
2021/05/26 00:41:12;;;;;;;17.38;15.30;;;;;;;;;;2058031;28;20257;-60
2021/05/26 00:42:18;;;;;;;15.55;14.00;;;;;;;;;;2057044;28;20948;-61
2021/05/26 00:43:18;;;;;;;19.77;14.57;;;;;;;;;;2054029;28;20159;-61
2021/05/26 00:44:19;;;;;;;16.85;14.13;;;;;;;;;;2052400;28;20226;-63
2021/05/26 00:45:19;;;;;;;17.10;15.32;;;;;;;;;;2047833;29;20179;-60
2021/05/26 00:46:19;;;;;;;16.95;15.27;;;;;;;;;;2044061;29;20680;-60
2021/05/26 00:47:39;;;;;;;17.83;15.13;;;;;;;;;;2057765;28;20202;-62
2021/05/26 00:48:39;;;;;;;18.20;16.15;;;;;;;;;;2052034;28;20181;-60
2021/05/26 00:49:39;;;;;;;18.38;15.43;;;;;;;;;;2056524;28;20253;-60
2021/05/26 00:50:41;;;;;;;16.90;15.30;;;;;;;;;;2049032;28;20667;-61
2021/05/26 00:51:41;;;;;;;18.05;16.20;;;;;;;;;;2048211;28;20203;-64
2021/05/26 00:52:42;;;;;;;18.33;16.48;;;;;;;;;;2053201;28;20162;-61
2021/05/26 00:53:43;;;;;;;19.98;17.13;;;;;;;;;;2045877;28;20226;-61
2021/05/26 00:54:43;;;;;;;18.80;16.73;;;;;;;;;;2041215;28;20644;-58
2021/05/26 00:55:44;;;;;;;19.08;17.20;;;;;;;;;;2052714;28;20209;-61
2021/05/26 00:56:48;;;;;;;18.33;16.40;;;;;;;;;;2057074;28;20178;-60
2021/05/26 00:57:49;;;;;;;18.27;16.38;;;;;;;;;;2057487;28;20194;-61
2021/05/26 00:58:53;;;;;;;19.13;16.63;;;;;;;;;;2051966;28;20181;-61
2021/05/26 00:59:53;;;;;;;18.98;16.63;;;;;;;;;;2044462;28;20258;-62
2021/05/26 01:00:55;;;;;;;19.42;17.42;;;;;;;;;;2046222;29;20629;-61
2021/05/26 01:01:56;;;;;;;18.83;16.83;;;;;;;;;;2049818;28;20198;-59
2021/05/26 01:02:57;;;;;;;20.30;17.27;;;;;;;;;;2057601;28;20630;-62
2021/05/26 01:04:00;;;;;;;19.83;17.70;;;;;;;;;;2055370;28;20214;-64
2021/05/26 01:05:01;;;;;;;21.58;17.77;;;;;;;;;;2056579;28;20521;-61
2021/05/26 01:06:02;;;;;;;19.35;17.38;;;;;;;;;;2048470;29;20546;-61
2021/05/26 01:07:03;;;;;;;18.67;16.80;;;;;;;;;;2048862;28;20215;-59
2021/05/26 01:08:04;;;;;;;19.52;17.52;;;;;;;;;;2057115;28;20638;-62
2021/05/26 01:09:05;;;;;;;19.58;17.20;;;;;;;;;;2056581;28;20171;-62
2021/05/26 01:10:10;;;;;;;18.95;17.05;;;;;;;;;;2048017;29;20181;-63
2021/05/26 01:11:23;;;;;;;21.67;17.92;;;;;;;;;;2041525;28;20550;-61
2021/05/26 01:12:25;;;;;;;20.52;18.02;;;;;;;;;;2038111;29;20199;-62
2021/05/26 01:13:25;;;;;;;18.83;17.02;;;;;;;;;;2043743;28;20175;-61
2021/05/26 01:14:26;;;;;;;20.48;18.42;;;;;;;;;;2055096;28;20197;-62
2021/05/26 01:15:26;;;;;;;21.08;18.83;;;;;;;;;;2049897;28;20822;-62
2021/05/26 01:16:27;;;;;;;20.95;18.85;;;;;;;;;;2051522;28;20258;-62
2021/05/26 01:17:27;;;;;;;20.88;18.77;;;;;;;;;;2042478;28;20637;-62
2021/05/26 01:18:29;;;;;;;21.08;18.88;;;;;;;;;;2048879;29;20182;-62
2021/05/26 01:19:34;;;;;;;20.63;17.70;;;;;;;;;;2047993;28;20694;-62
2021/05/26 01:20:34;;;;;;;20.63;18.48;;;;;;;;;;2048541;28;20175;-62
2021/05/26 01:21:35;;;;;;;18.25;16.40;;;;;;;;;;2052899;28;20245;-62
2021/05/26 01:22:36;;;;;;;19.85;17.85;;;;;;;;;;2048724;28;20187;-58
2021/05/26 01:23:37;;;;;;;20.98;18.08;;;;;;;;;;2047953;29;20265;-60
2021/05/26 01:24:39;;;;;;;22.10;17.85;;;;;;;;;;2055374;28;20194;-60
2021/05/26 01:25:39;;;;;;;20.00;17.75;;;;;;;;;;2055667;28;20185;-62
2021/05/26 01:26:39;;;;;;;20.75;18.65;;;;;;;;;;2042689;28;20202;-61
2021/05/26 01:27:43;;;;;;;22.20;19.48;;;;;;;;;;2043922;29;20238;-61
2021/05/26 01:28:47;;;;;;;20.90;18.70;;;;;;;;;;2037879;29;20530;-60
2021/05/26 01:29:54;;;;;;;20.25;17.80;;;;;;;;;;2048937;28;20187;-62
2021/05/26 01:30:56;;;;;;;20.67;18.50;;;;;;;;;;2048035;28;20910;-60
2021/05/26 01:31:59;;;;;;;20.77;18.25;;;;;;;;;;2049291;28;20167;-63
2021/05/26 01:33:05;;;;;;;19.83;17.33;;;;;;;;;;2051911;28;20630;-63
2021/05/26 01:34:09;;;;;;;20.73;18.42;;;;;;;;;;2039505;29;20587;-62
2021/05/26 01:35:14;;;;;;;21.90;19.52;;;;;;;;;;2049834;28;20605;-61
2021/05/26 01:36:15;;;;;;;21.27;19.05;;;;;;;;;;2058054;28;20544;-61
2021/05/26 01:37:16;;;;;;;22.25;18.77;;;;;;;;;;2048302;28;20183;-61
2021/05/26 01:38:17;;;;;;;24.15;20.00;;;;;;;;;;2048760;28;20177;-61
2021/05/26 01:39:19;;;;;;;21.13;18.92;;;;;;;;;;2048729;28;20227;-61
2021/05/26 01:40:19;;;;;;;21.77;19.13;;;;;;;;;;2056927;28;20605;-60
2021/05/26 01:41:19;;;;;;;20.95;18.70;;;;;;;;;;2057529;28;20181;-61
2021/05/26 01:42:27;;;;;;;21.02;18.88;;;;;;;;;;2045976;28;20685;-60
2021/05/26 01:43:28;;;;;;;23.88;19.25;;;;;;;;;;2044990;28;20810;-61
2021/05/26 01:44:34;;;;;;;20.95;18.70;;;;;;;;;;2046296;28;20199;-61
2021/05/26 01:45:45;;;;;;;23.70;20.58;;;;;;;;;;2041288;29;20167;-62
2021/05/26 01:46:46;;;;;;;25.35;19.75;;;;;;;;;;2048981;28;20167;-62
2021/05/26 01:47:50;;;;;;;21.67;18.75;;;;;;;;;;2050528;28;20246;-62
2021/05/26 01:48:51;;;;;;;27.02;19.67;;;;;;;;;;2049430;28;20221;-61
2021/05/26 01:49:52;;;;;;;24.23;20.40;;;;;;;;;;2048961;28;20638;-59
2021/05/26 01:50:53;;;;;;;25.80;21.90;;;;;;;;;;2054254;28;20268;-60
2021/05/26 01:51:53;;;;;;;25.95;20.98;;;;;;;;;;2055558;28;20178;-63
2021/05/26 01:52:57;;;;;;;25.05;21.58;;;;;;;;;;2053077;28;20581;-60
2021/05/26 01:53:58;;;;;;;27.83;22.08;;;;;;;;;;2054704;28;20220;-60
2021/05/26 01:55:00;;;;;;;23.55;21.02;;;;;;;;;;2055139;28;20551;-61
2021/05/26 01:56:04;;;;;;;26.83;21.23;;;;;;;;;;2052212;28;20209;-59
2021/05/26 01:57:16;;;;;;;22.48;19.60;;;;;;;;;;2054157;28;20711;-61
2021/05/26 01:58:16;;;;;;;25.08;19.65;;;;;;;;;;2032409;29;20176;-60
2021/05/26 01:59:17;;;;;;;23.20;20.80;;;;;;;;;;2034363;28;20180;-61
2021/05/26 02:00:22;;;;;;;25.10;20.90;;;;;;;;;;2055870;28;20181;-58
2021/05/26 02:01:26;;;;;;;20.23;18.10;;;;;;;;;;2047157;29;20178;-60
2021/05/26 02:02:28;;;;;;;21.40;19.10;;;;;;;;;;2043630;29;20221;-61
2021/05/26 02:03:28;;;;;;;22.85;19.23;;;;;;;;;;2049790;28;20230;-61
2021/05/26 02:04:29;;;;;;;21.00;18.67;;;;;;;;;;2051840;28;20198;-62
2021/05/26 02:05:29;;;;;;;21.60;19.42;;;;;;;;;;2056453;28;20167;-62
2021/05/26 02:06:31;;;;;;;20.48;17.40;;;;;;;;;;2056560;28;20163;-61
2021/05/26 02:07:31;;;;;;;22.38;18.33;;;;;;;;;;2057359;28;20174;-62
2021/05/26 02:08:31;;;;;;;21.80;17.42;;;;;;;;;;2047793;28;20726;-62
2021/05/26 02:09:35;;;;;;;20.65;17.70;;;;;;;;;;2048356;28;20167;-60
2021/05/26 02:13:14;;;;;;;25.75;15.05;;;;;;;;;;2047420;28;20179;-60
2021/05/26 02:14:15;;;;;;;20.02;15.63;;;;;;;;;;2041543;28;20194;-60
2021/05/26 02:15:16;;;;;;;20.08;15.27;;;;;;;;;;2055244;28;20708;-64
2021/05/26 02:16:17;;;;;;;22.08;15.82;;;;;;;;;;2046054;29;20179;-60
2021/05/26 02:17:18;;;;;;;24.15;14.60;;;;;;;;;;2048360;28;20719;-55
2021/05/26 02:18:18;;;;;;;19.77;13.68;;;;;;;;;;2048873;29;20691;-58
2021/05/26 02:19:18;;;;;;;15.88;13.07;;;;;;;;;;2050379;28;20167;-56
2021/05/26 02:20:20;;;;;;;16.58;13.40;;;;;;;;;;2049700;29;20175;-54
2021/05/26 02:21:23;;;;;;;15.52;12.02;;;;;;;;;;2040893;29;20183;-55
2021/05/26 02:22:23;;;;;;;18.48;13.40;;;;;;;;;;2040668;29;20176;-55
2021/05/26 02:23:23;;;;;;;16.00;13.50;;;;;;;;;;2040842;29;20167;-55
2021/05/26 02:24:24;;;;;;;15.88;13.48;;;;;;;;;;2050988;28;20599;-54
2021/05/26 02:25:24;;;;;;;14.77;13.10;;;;;;;;;;2049200;28;20556;-57
2021/05/26 02:26:25;;;;;;;15.30;12.60;;;;;;;;;;2048827;29;20202;-55
2021/05/26 02:27:26;;;;;;;13.82;12.32;;;;;;;;;;2049219;28;20163;-55
2021/05/26 02:28:26;;;;;;;15.82;13.38;;;;;;;;;;2049475;28;20175;-55
2021/05/26 02:29:27;;;;;;;16.83;13.38;;;;;;;;;;2040524;29;20576;-58
2021/05/26 02:30:27;;;;;;;14.88;12.93;;;;;;;;;;2048587;29;20338;-59
2021/05/26 02:31:28;;;;;;;14.65;12.88;;;;;;;;;;2054405;28;20206;-58
2021/05/26 02:32:28;;;;;;;17.35;13.13;;;;;;;;;;2048364;28;20187;-58
2021/05/26 02:33:28;;;;;;;17.30;14.18;;;;;;;;;;2043059;28;20167;-58
2021/05/26 02:34:29;;;;;;;16.77;13.52;;;;;;;;;;2045836;29;20195;-57
2021/05/26 02:35:29;;;;;;;16.77;13.77;;;;;;;;;;2043306;28;20282;-58
2021/05/26 02:36:29;;;;;;;17.73;13.88;;;;;;;;;;2047509;29;20229;-55
2021/05/26 02:37:33;;;;;;;15.77;14.23;;;;;;;;;;2047726;29;20175;-56
2021/05/26 02:38:33;;;;;;;21.15;15.85;;;;;;;;;;2047774;29;20221;-57
2021/05/26 02:39:34;;;;;;;23.65;17.75;;;;;;;;;;2055414;28;20195;-57
2021/05/26 02:40:36;;;;;;;23.45;18.65;;;;;;;;;;2055091;28;20189;-57
2021/05/26 02:41:47;;;;;;;24.75;18.08;;;;;;;;;;2055397;28;20232;-56
2021/05/26 02:42:49;;;;;;;28.02;19.45;;;;;;;;;;2045685;29;20636;-57
2021/05/26 02:43:50;;;;;;;33.25;22.65;;;;;;;;;;2040437;29;20172;-57
2021/05/26 02:44:52;;;;;;;37.42;26.10;;;;;;;;;;2047446;28;20218;-57
2021/05/26 02:45:53;;;;;;;48.20;27.40;;;;;;;;;;2050643;28;20171;-57
2021/05/26 02:46:54;;;;;;;39.50;26.92;;;;;;;;;;2046709;28;20210;-56
2021/05/26 02:47:54;;;;;;;44.22;29.65;;;;;;;;;;2055781;28;20173;-54
2021/05/26 02:48:54;;;;;;;40.67;28.55;;;;;;;;;;2056069;28;20646;-56
2021/05/26 02:49:55;;;;;;;39.17;29.38;;;;;;;;;;2057040;28;20194;-58
2021/05/26 02:50:55;;;;;;;43.60;29.90;;;;;;;;;;2056391;28;20539;-54
2021/05/26 02:51:56;;;;;;;44.25;30.13;;;;;;;;;;2048227;28;20183;-54
2021/05/26 02:52:56;;;;;;;52.05;32.95;;;;;;;;;;2046972;29;20186;-55
2021/05/26 02:53:58;;;;;;;46.20;32.72;;;;;;;;;;2056356;28;20576;-58
2021/05/26 02:54:59;;;;;;;43.50;32.45;;;;;;;;;;2046283;28;20229;-56
2021/05/26 02:55:59;;;;;;;43.40;31.23;;;;;;;;;;2040543;29;20291;-55
2021/05/26 02:57:11;;;;;;;45.08;30.95;;;;;;;;;;2049123;28;20258;-56
2021/05/26 02:58:41;;;;;;;44.60;29.67;;;;;;;;;;2045457;28;20254;-57
2021/05/26 03:01:08;;;;;;;50.35;30.00;;;;;;;;;;2037453;29;20211;-55
2021/05/26 03:02:35;;;;;;;44.85;28.48;;;;;;;;;;2043883;28;20547;-53
2021/05/26 03:03:41;;;;;;;53.47;32.05;;;;;;;;;;2048666;29;20230;-57
2021/05/26 03:04:48;;;;;;;40.50;29.77;;;;;;;;;;2047843;28;20174;-57
2021/05/26 03:05:50;;;;;;;43.38;29.75;;;;;;;;;;2039734;29;20160;-57
2021/05/26 03:06:51;;;;;;;42.75;29.02;;;;;;;;;;2040034;29;20164;-53
2021/05/26 03:07:52;;;;;;;44.90;28.38;;;;;;;;;;2041151;29;20714;-56
2021/05/26 03:08:52;;;;;;;41.38;30.25;;;;;;;;;;2036270;29;20502;-58
2021/05/26 03:09:57;;;;;;;44.53;29.73;;;;;;;;;;2056174;28;20337;-54
2021/05/26 03:10:58;;;;;;;45.78;28.88;;;;;;;;;;2064184;28;20211;-60
2021/05/26 03:12:21;;;;;;;40.92;28.55;;;;;;;;;;2055323;28;20182;-55
2021/05/26 03:13:26;;;;;;;39.22;28.80;;;;;;;;;;2063875;28;20211;-61
2021/05/26 03:14:30;;;;;;;37.15;28.30;;;;;;;;;;2057755;28;20209;-56
2021/05/26 03:15:36;;;;;;;39.92;28.65;;;;;;;;;;2049954;28;20187;-57
2021/05/26 03:16:41;;;;;;;43.03;26.98;;;;;;;;;;2049509;28;20171;-59
2021/05/26 03:17:42;;;;;;;43.08;28.55;;;;;;;;;;2049227;28;20261;-54
2021/05/26 03:18:46;;;;;;;40.90;27.63;;;;;;;;;;2047105;28;20194;-57
2021/05/26 03:19:46;;;;;;;46.45;28.45;;;;;;;;;;2055581;28;20576;-60
2021/05/26 03:21:07;;;;;;;37.78;26.80;;;;;;;;;;2048935;28;20186;-57
2021/05/26 03:22:26;;;;;;;33.53;25.75;;;;;;;;;;2056749;28;20166;-53
2021/05/26 03:23:47;;;;;;;34.67;25.60;;;;;;;;;;2051097;28;20615;-57
2021/05/26 03:25:02;;;;;;;38.90;25.40;;;;;;;;;;2056175;28;20197;-58
2021/05/26 03:26:02;;;;;;;30.92;24.45;;;;;;;;;;2056681;28;20178;-57
2021/05/26 03:27:03;;;;;;;34.17;25.45;;;;;;;;;;2056760;28;20229;-54
2021/05/26 03:28:03;;;;;;;32.15;26.00;;;;;;;;;;2057660;28;20193;-59
2021/05/26 03:29:03;;;;;;;34.20;26.42;;;;;;;;;;2048002;29;20235;-57
2021/05/26 03:30:05;;;;;;;31.92;24.77;;;;;;;;;;2047038;29;20303;-57
2021/05/26 03:31:05;;;;;;;36.35;25.67;;;;;;;;;;2056122;28;20227;-55
2021/05/26 03:32:06;;;;;;;34.03;24.42;;;;;;;;;;2056072;28;20178;-57
2021/05/26 03:33:07;;;;;;;35.17;24.15;;;;;;;;;;2056662;28;20241;-58
2021/05/26 03:34:08;;;;;;;32.58;24.98;;;;;;;;;;2056961;28;20174;-57
2021/05/26 03:35:10;;;;;;;30.88;23.58;;;;;;;;;;2048006;28;20167;-54
2021/05/26 03:36:10;;;;;;;30.95;23.98;;;;;;;;;;2048131;28;20629;-52
2021/05/26 03:37:14;;;;;;;34.40;22.83;;;;;;;;;;2055968;28;20225;-60
2021/05/26 03:38:16;;;;;;;29.83;21.65;;;;;;;;;;2062635;28;20203;-57
2021/05/26 03:39:31;;;;;;;35.55;23.67;;;;;;;;;;2055977;28;20358;-58
2021/05/26 03:40:33;;;;;;;34.17;23.52;;;;;;;;;;2048118;29;20223;-59
2021/05/26 03:41:34;;;;;;;32.40;22.67;;;;;;;;;;2047837;28;20174;-58
2021/05/26 03:42:34;;;;;;;29.75;21.08;;;;;;;;;;2055500;28;20212;-57
2021/05/26 03:43:34;;;;;;;31.08;23.10;;;;;;;;;;2057602;28;20182;-56
2021/05/26 03:44:35;;;;;;;27.23;21.65;;;;;;;;;;2064672;28;20177;-56
2021/05/26 03:45:36;;;;;;;25.20;18.25;;;;;;;;;;2063977;28;20182;-56
2021/05/26 03:46:36;;;;;;;26.55;20.70;;;;;;;;;;2058799;28;20210;-59
2021/05/26 03:47:37;;;;;;;27.70;20.30;;;;;;;;;;2057462;28;20538;-54
2021/05/26 03:48:38;;;;;;;28.40;20.00;;;;;;;;;;2055029;28;20182;-58
2021/05/26 03:49:39;;;;;;;30.35;20.00;;;;;;;;;;2055167;28;20671;-59
2021/05/26 03:50:42;;;;;;;29.10;20.00;;;;;;;;;;2055511;28;20213;-59
2021/05/26 03:51:46;;;;;;;24.77;20.58;;;;;;;;;;2046939;28;20163;-58
2021/05/26 03:52:51;;;;;;;27.42;20.30;;;;;;;;;;2045395;28;20202;-57
2021/05/26 03:53:53;;;;;;;24.05;19.45;;;;;;;;;;2057097;28;20174;-58
2021/05/26 03:55:03;;;;;;;24.02;20.08;;;;;;;;;;2050348;28;20171;-61
2021/05/26 03:56:04;;;;;;;30.75;20.73;;;;;;;;;;2048684;28;20202;-57
2021/05/26 03:57:07;;;;;;;25.90;18.88;;;;;;;;;;2057575;28;20176;-56
2021/05/26 03:58:07;;;;;;;25.67;17.77;;;;;;;;;;2063234;28;20185;-55
2021/05/26 03:59:09;;;;;;;26.60;19.80;;;;;;;;;;2057543;28;20209;-55
2021/05/26 04:00:12;;;;;;;23.80;18.40;;;;;;;;;;2046598;28;20168;-60
2021/05/26 04:01:19;;;;;;;23.67;17.92;;;;;;;;;;2034876;29;20565;-54
2021/05/26 04:02:19;;;;;;;24.02;18.00;;;;;;;;;;2049826;28;20179;-58
2021/05/26 04:03:21;;;;;;;22.90;17.42;;;;;;;;;;2064589;28;20184;-53
2021/05/26 04:04:23;;;;;;;25.48;17.85;;;;;;;;;;2064480;28;20205;-56
2021/05/26 04:05:24;;;;;;;27.67;18.15;;;;;;;;;;2057457;28;20190;-54
2021/05/26 04:06:26;;;;;;;22.90;17.70;;;;;;;;;;2056373;28;20278;-57
2021/05/26 04:07:27;;;;;;;25.13;17.42;;;;;;;;;;2065420;28;20184;-59
2021/05/26 04:08:27;;;;;;;25.75;17.02;;;;;;;;;;2057008;28;20550;-57
2021/05/26 04:09:28;;;;;;;23.60;16.83;;;;;;;;;;2055976;28;20676;-62
2021/05/26 04:10:29;;;;;;;20.02;16.33;;;;;;;;;;2058255;29;20238;-59
2021/05/26 04:11:36;;;;;;;22.63;16.77;;;;;;;;;;2051071;29;20191;-60
2021/05/26 04:12:43;;;;;;;25.08;16.30;;;;;;;;;;2060461;28;20175;-62
2021/05/26 04:13:57;;;;;;;21.58;16.90;;;;;;;;;;2061572;28;20542;-54
2021/05/26 04:15:27;;;;;;;21.80;16.40;;;;;;;;;;2049947;28;20194;-52
2021/05/26 04:17:05;;;;;;;22.73;15.82;;;;;;;;;;2034749;29;20673;-60
2021/05/26 04:18:17;;;;;;;21.33;16.38;;;;;;;;;;2035447;29;20268;-53
2021/05/26 04:19:20;;;;;;;20.90;17.02;;;;;;;;;;2032391;29;20653;-54
2021/05/26 04:20:22;;;;;;;20.60;15.43;;;;;;;;;;2025968;29;20223;-53
2021/05/26 04:21:23;;;;;;;20.75;15.82;;;;;;;;;;2037289;29;20685;-53
2021/05/26 04:22:23;;;;;;;19.67;15.65;;;;;;;;;;2036594;28;20296;-54
2021/05/26 04:23:28;;;;;;;20.33;16.30;;;;;;;;;;2057937;28;20258;-57
2021/05/26 04:24:36;;;;;;;20.25;16.30;;;;;;;;;;2049343;29;20170;-54
2021/05/26 04:25:36;;;;;;;21.30;15.70;;;;;;;;;;2047107;28;20283;-58
2021/05/26 04:26:36;;;;;;;19.67;14.43;;;;;;;;;;2057507;28;20174;-55
2021/05/26 04:27:41;;;;;;;21.27;14.23;;;;;;;;;;2050142;28;20213;-58
2021/05/26 04:28:44;;;;;;;18.23;15.02;;;;;;;;;;2065012;28;20224;-56
2021/05/26 04:29:45;;;;;;;18.45;14.00;;;;;;;;;;2065856;28;20324;-56
2021/05/26 04:30:47;;;;;;;16.67;13.30;;;;;;;;;;2057167;28;20290;-57
2021/05/26 04:31:48;;;;;;;20.00;13.55;;;;;;;;;;2046148;29;22185;-59
2021/05/26 04:32:48;;;;;;;20.42;14.93;;;;;;;;;;2045692;28;20269;-52
2021/05/26 04:33:49;;;;;;;19.48;13.20;;;;;;;;;;2056460;28;20169;-59
2021/05/26 04:34:49;;;;;;;18.00;13.13;;;;;;;;;;2057336;28;20170;-59
2021/05/26 04:35:49;;;;;;;16.27;14.20;;;;;;;;;;2057415;28;20182;-59
2021/05/26 04:36:50;;;;;;;17.80;12.90;;;;;;;;;;2058815;28;20189;-60
2021/05/26 04:37:50;;;;;;;21.27;13.10;;;;;;;;;;2063261;28;20645;-57
2021/05/26 04:38:50;;;;;;;16.13;13.63;;;;;;;;;;2060674;28;20178;-57
2021/05/26 04:39:50;;;;;;;18.45;14.05;;;;;;;;;;2048662;29;20250;-55
2021/05/26 04:40:51;;;;;;;17.98;13.23;;;;;;;;;;2052171;28;20275;-53
2021/05/26 04:41:51;;;;;;;15.38;12.35;;;;;;;;;;2058782;28;20170;-56
2021/05/26 04:42:51;;;;;;;18.40;13.18;;;;;;;;;;2059808;28;20248;-56
2021/05/26 04:43:51;;;;;;;14.25;12.80;;;;;;;;;;2063591;28;20174;-58
2021/05/26 04:44:52;;;;;;;21.88;14.32;;;;;;;;;;2062158;28;20183;-56
2021/05/26 04:45:52;;;;;;;16.17;13.38;;;;;;;;;;2061096;28;20179;-55
2021/05/26 04:46:52;;;;;;;20.20;13.10;;;;;;;;;;2061378;28;20176;-57
2021/05/26 04:47:54;;;;;;;18.90;12.85;;;;;;;;;;2057066;28;20288;-57
2021/05/26 04:48:54;;;;;;;16.83;13.75;;;;;;;;;;2052108;28;20595;-56
2021/05/26 04:49:54;;;;;;;15.38;13.45;;;;;;;;;;2059920;28;20182;-58
2021/05/26 04:50:54;;;;;;;17.50;13.18;;;;;;;;;;2060523;28;20198;-56
2021/05/26 04:51:56;;;;;;;14.15;12.65;;;;;;;;;;2057819;28;20559;-57
2021/05/26 04:52:57;;;;;;;17.02;14.02;;;;;;;;;;2057228;28;20588;-58
2021/05/26 04:53:57;;;;;;;18.63;13.98;;;;;;;;;;2057300;28;20194;-56
2021/05/26 04:54:57;;;;;;;19.20;14.25;;;;;;;;;;2059129;28;20186;-55
2021/05/26 04:55:57;;;;;;;21.85;14.48;;;;;;;;;;2060416;28;20178;-54
2021/05/26 04:56:58;;;;;;;17.90;14.77;;;;;;;;;;2056988;28;20273;-53
2021/05/26 04:58:02;;;;;;;15.88;13.75;;;;;;;;;;2057136;28;20269;-54
2021/05/26 04:59:02;;;;;;;16.83;14.27;;;;;;;;;;2055889;28;20186;-61
2021/05/26 05:00:06;;;;;;;18.73;14.95;;;;;;;;;;2059545;28;20620;-59
2021/05/26 05:01:06;;;;;;;18.27;15.32;;;;;;;;;;2056919;28;20186;-57
2021/05/26 05:02:06;;;;;;;19.10;14.68;;;;;;;;;;2057212;28;20650;-58
2021/05/26 05:03:07;;;;;;;19.55;15.85;;;;;;;;;;2056489;28;20691;-58
2021/05/26 05:04:07;;;;;;;20.45;16.08;;;;;;;;;;2056077;28;20186;-56
2021/05/26 05:05:08;;;;;;;18.15;15.82;;;;;;;;;;2056546;28;20210;-56
2021/05/26 05:06:08;;;;;;;18.80;16.20;;;;;;;;;;2057489;28;20178;-58
2021/05/26 05:07:09;;;;;;;20.30;17.08;;;;;;;;;;2057335;28;20181;-54
2021/05/26 05:08:09;;;;;;;23.00;18.00;;;;;;;;;;2053483;28;20647;-60
2021/05/26 05:09:11;;;;;;;19.10;16.95;;;;;;;;;;2056444;28;20709;-57
2021/05/26 05:10:11;;;;;;;26.40;18.05;;;;;;;;;;2060435;28;20551;-57
2021/05/26 05:11:11;;;;;;;23.90;18.55;;;;;;;;;;2057790;28;20266;-58
2021/05/26 05:12:12;;;;;;;24.08;17.58;;;;;;;;;;2057321;28;20177;-58
2021/05/26 05:13:12;;;;;;;22.63;16.55;;;;;;;;;;2056683;28;20193;-56
2021/05/26 05:14:12;;;;;;;22.48;17.60;;;;;;;;;;2057612;28;20170;-56
2021/05/26 05:15:13;;;;;;;24.48;18.73;;;;;;;;;;2057698;28;20301;-57
2021/05/26 05:16:13;;;;;;;20.95;18.15;;;;;;;;;;2056893;28;20177;-52
2021/05/26 05:17:13;;;;;;;21.98;17.33;;;;;;;;;;2059100;28;20179;-60
2021/05/26 05:18:14;;;;;;;22.42;16.30;;;;;;;;;;2052367;28;20246;-58
2021/05/26 05:19:14;;;;;;;21.58;17.95;;;;;;;;;;2060711;28;20174;-58
2021/05/26 05:20:16;;;;;;;22.35;16.35;;;;;;;;;;2051339;28;20210;-56
2021/05/26 05:21:16;;;;;;;26.65;17.27;;;;;;;;;;2036707;29;20551;-59
2021/05/26 05:22:17;;;;;;;21.15;16.92;;;;;;;;;;2050260;29;20175;-56
2021/05/26 05:23:17;;;;;;;23.52;17.95;;;;;;;;;;2050630;28;20170;-58
2021/05/26 05:24:18;;;;;;;23.08;17.45;;;;;;;;;;2058516;28;20170;-58
2021/05/26 05:25:18;;;;;;;22.25;17.40;;;;;;;;;;2058258;28;20183;-57
2021/05/26 05:26:18;;;;;;;20.58;17.02;;;;;;;;;;2057883;28;20241;-59
2021/05/26 05:27:18;;;;;;;23.40;18.95;;;;;;;;;;2057658;28;20198;-57
2021/05/26 05:28:19;;;;;;;23.52;17.52;;;;;;;;;;2057728;28;20167;-58
2021/05/26 05:29:19;;;;;;;21.33;17.25;;;;;;;;;;2055957;28;20178;-57
2021/05/26 05:30:20;;;;;;;19.30;17.30;;;;;;;;;;2056801;28;20562;-51
2021/05/26 05:31:20;;;;;;;22.00;18.33;;;;;;;;;;2057635;28;20171;-50
2021/05/26 05:32:20;;;;;;;19.05;16.58;;;;;;;;;;2056887;28;20182;-52
2021/05/26 05:33:20;;;;;;;22.98;17.58;;;;;;;;;;2056798;28;20193;-61
2021/05/26 05:34:21;;;;;;;20.67;18.38;;;;;;;;;;2056017;28;20172;-59
2021/05/26 05:35:21;;;;;;;20.88;17.52;;;;;;;;;;2054423;28;20178;-61
2021/05/26 05:36:22;;;;;;;22.13;19.73;;;;;;;;;;2047200;28;20282;-58
2021/05/26 05:37:23;;;;;;;21.40;18.20;;;;;;;;;;2057139;28;20182;-61
2021/05/26 05:38:23;;;;;;;22.02;17.48;;;;;;;;;;2066400;28;20311;-53
2021/05/26 05:39:23;;;;;;;21.73;17.42;;;;;;;;;;2055619;28;20596;-56
2021/05/26 05:40:25;;;;;;;19.38;17.35;;;;;;;;;;2056295;28;20336;-53
2021/05/26 05:41:25;;;;;;;21.77;18.27;;;;;;;;;;2056461;28;20186;-57
2021/05/26 05:42:27;;;;;;;22.17;18.17;;;;;;;;;;2056929;28;20245;-60
2021/05/26 05:43:27;;;;;;;20.70;16.65;;;;;;;;;;2057243;28;20180;-60
2021/05/26 05:44:28;;;;;;;21.67;17.35;;;;;;;;;;2056376;28;20233;-53
2021/05/26 05:45:28;;;;;;;23.30;18.17;;;;;;;;;;2056244;28;20163;-54
2021/05/26 05:46:28;;;;;;;21.70;17.50;;;;;;;;;;2057214;28;20209;-54
2021/05/26 05:47:28;;;;;;;21.73;17.80;;;;;;;;;;2057326;28;20772;-59
2021/05/26 05:48:29;;;;;;;19.27;15.85;;;;;;;;;;2057106;28;20217;-57
2021/05/26 05:49:29;;;;;;;24.52;18.13;;;;;;;;;;2046786;28;20227;-53
2021/05/26 05:50:30;;;;;;;23.33;19.23;;;;;;;;;;2048232;29;20210;-58
2021/05/26 05:51:31;;;;;;;26.63;17.70;;;;;;;;;;2051209;28;20545;-54
2021/05/26 05:52:31;;;;;;;22.52;18.08;;;;;;;;;;2056900;28;20174;-55
2021/05/26 05:53:31;;;;;;;17.58;15.68;;;;;;;;;;2057487;28;20174;-56
2021/05/26 05:54:31;;;;;;;18.25;15.18;;;;;;;;;;2057160;28;20225;-54
2021/05/26 05:55:32;;;;;;;21.52;15.15;;;;;;;;;;2057178;28;20661;-59
2021/05/26 05:56:32;;;;;;;19.50;15.85;;;;;;;;;;2048529;28;20744;-52
2021/05/26 05:57:32;;;;;;;18.63;14.70;;;;;;;;;;2047989;28;20179;-58
2021/05/26 05:58:33;;;;;;;18.23;15.93;;;;;;;;;;2056499;28;20209;-52
2021/05/26 05:59:33;;;;;;;21.08;16.08;;;;;;;;;;2059471;28;20173;-59
2021/05/26 06:00:35;;;;;;;22.15;16.17;;;;;;;;;;2055625;28;20557;-55
2021/05/26 06:01:35;;;;;;;16.70;15.00;;;;;;;;;;2057321;28;20199;-56
2021/05/26 06:02:35;;;;;;;20.23;14.90;;;;;;;;;;2056469;28;20960;-54
2021/05/26 06:03:36;;;;;;;17.45;15.57;;;;;;;;;;2057398;28;20185;-56
2021/05/26 06:04:36;;;;;;;21.23;15.02;;;;;;;;;;2043585;29;20191;-54
2021/05/26 06:05:36;;;;;;;19.33;16.00;;;;;;;;;;2049113;28;20245;-53